Time;durP1;ratioP1;P1;durP2;ratioP2;P2;SDS_P1;SDS_P2;PMS_P1;PMS_P2;Temp;Humidity;BMP_temperature;BMP_pressure;BME280_temperature;BME280_humidity;BME280_pressure;Samples;Min_cycle;Max_cycle;Signal;HPM_P1;HPM_P2
2021/11/17 02:26:07;;;;;;;968.75;901.95;;;;;;;6.56;70.54;101457.88;678878;28;157286;-68
2021/11/17 02:26:45;;;;;;;976.35;909.35;;;;;;;6.55;70.39;101459.72;674243;29;157297;-68
2021/11/17 02:27:18;;;;;;;967.63;900.92;;;;;;;6.54;70.45;101454.47;682030;28;138260;-68
2021/11/17 02:27:51;;;;;;;972.88;905.80;;;;;;;6.55;70.52;101458.84;682134;28;138544;-68
2021/11/17 02:28:29;;;;;;;972.88;906.00;;;;;;;6.53;70.20;101452.75;682745;28;138438;-68
2021/11/17 02:29:03;;;;;;;969.80;903.10;;;;;;;6.52;70.35;101459.09;685705;28;137417;-68
2021/11/17 02:29:50;;;;;;;970.58;903.88;;;;;;;6.52;70.49;101457.28;685949;28;138168;-68
2021/11/17 02:30:38;;;;;;;974.47;907.60;;;;;;;6.49;70.41;101454.88;685301;28;137427;-68
2021/11/17 02:31:34;;;;;;;969.13;902.42;;;;;;;6.49;70.46;101452.19;685389;28;136043;-68
2021/11/17 02:32:20;;;;;;;968.08;901.45;;;;;;;6.46;70.55;101445.25;674459;29;137488;-69
2021/11/17 02:33:00;;;;;;;970.55;903.75;;;;;;;6.46;70.54;101453.28;674704;29;137288;-68
2021/11/17 02:33:55;;;;;;;977.38;910.30;;;;;;;6.46;70.62;101447.94;685950;28;137811;-68
2021/11/17 02:34:42;;;;;;;976.10;909.10;;;;;;;6.44;70.82;101439.16;688175;28;137978;-68
2021/11/17 02:35:22;;;;;;;966.90;900.25;;;;;;;6.45;70.64;101446.22;687032;28;138432;-69
2021/11/17 02:35:59;;;;;;;970.97;904.10;;;;;;;6.46;70.59;101449.78;686174;28;158343;-69
2021/11/17 02:36:37;;;;;;;976.58;909.60;;;;;;;6.41;70.64;101450.16;686152;28;157311;-68
2021/11/17 02:37:13;;;;;;;980.90;913.72;;;;;;;6.39;70.73;101452.09;685835;28;159833;-69
2021/11/17 02:37:47;;;;;;;980.30;913.13;;;;;;;6.37;70.59;101437.97;685496;28;135952;-68
2021/11/17 02:38:29;;;;;;;975.90;908.92;;;;;;;6.38;70.59;101450.44;685700;28;137295;-68
2021/11/17 02:39:05;;;;;;;975.30;908.28;;;;;;;6.38;70.63;101439.69;685549;28;135653;-68
2021/11/17 02:39:39;;;;;;;975.10;908.35;;;;;;;6.36;70.58;101446.16;685619;28;137604;-68
2021/11/17 02:40:25;;;;;;;980.75;913.60;;;;;;;6.38;70.57;101452.25;685779;28;137367;-68
2021/11/17 02:41:12;;;;;;;988.08;920.65;;;;;;;6.36;70.68;101448.84;685045;28;156351;-68
2021/11/17 02:41:45;;;;;;;976.28;909.28;;;;;;;6.37;70.78;101443.34;684904;28;157178;-68
2021/11/17 02:42:23;;;;;;;983.53;916.28;;;;;;;6.37;70.50;101442.50;685477;28;137440;-69
2021/11/17 02:43:06;;;;;;;979.95;912.78;;;;;;;6.36;70.72;101436.28;685519;28;136829;-68
2021/11/17 02:43:47;;;;;;;980.00;912.92;;;;;;;6.37;70.67;101439.81;685770;28;138318;-68
2021/11/17 02:44:27;;;;;;;973.65;906.75;;;;;;;6.38;70.72;101441.50;685884;28;137565;-68
2021/11/17 02:45:03;;;;;;;973.42;906.58;;;;;;;6.38;70.42;101439.69;685846;28;138384;-68
2021/11/17 02:45:40;;;;;;;981.83;914.55;;;;;;;6.38;70.51;101441.50;685185;28;138189;-68
2021/11/17 02:46:18;;;;;;;974.70;907.70;;;;;;;6.37;70.37;101451.41;685366;28;138363;-68
2021/11/17 02:46:52;;;;;;;971.75;904.83;;;;;;;6.39;70.60;101440.53;685627;28;137500;-69
2021/11/17 02:47:31;;;;;;;976.03;909.03;;;;;;;6.39;70.57;101444.06;685218;28;137525;-69
2021/11/17 02:48:05;;;;;;;981.47;914.38;;;;;;;6.40;70.24;101447.63;682943;28;160512;-69
2021/11/17 02:48:38;;;;;;;978.05;911.05;;;;;;;6.40;70.36;101444.94;684194;28;136059;-68
2021/11/17 02:49:30;;;;;;;979.60;912.53;;;;;;;6.38;70.19;101444.19;683375;28;158706;-69
2021/11/17 02:50:08;;;;;;;990.67;923.17;;;;;;;6.38;70.36;101446.88;685641;28;136005;-68
2021/11/17 02:50:50;;;;;;;971.78;904.95;;;;;;;6.37;70.22;101440.66;683891;28;137686;-68
2021/11/17 02:51:32;;;;;;;980.65;913.45;;;;;;;6.38;70.15;101442.38;683982;28;137407;-68
2021/11/17 02:52:18;;;;;;;976.75;909.75;;;;;;;6.42;69.91;101442.97;684185;28;137677;-68
2021/11/17 02:52:58;;;;;;;972.17;905.28;;;;;;;6.41;69.89;101441.25;685744;28;128148;-68
2021/11/17 02:53:34;;;;;;;970.17;903.42;;;;;;;6.40;69.68;101445.78;685709;28;137529;-68
2021/11/17 02:54:13;;;;;;;981.60;914.33;;;;;;;6.38;69.95;101434.31;685861;28;133195;-68
2021/11/17 02:55:00;;;;;;;973.53;906.70;;;;;;;6.38;69.84;101436.16;685768;28;137454;-68
2021/11/17 02:55:40;;;;;;;976.30;909.38;;;;;;;6.37;69.77;101434.47;685062;28;130973;-68
2021/11/17 02:56:24;;;;;;;974.45;907.55;;;;;;;6.39;69.73;101438.69;685486;28;138844;-69
2021/11/17 02:57:09;;;;;;;976.05;908.97;;;;;;;6.36;69.72;101436.28;685551;28;137738;-68
2021/11/17 02:57:43;;;;;;;980.42;913.22;;;;;;;6.36;69.95;101433.59;686567;28;115604;-69
2021/11/17 02:58:40;;;;;;;984.22;916.83;;;;;;;6.36;69.97;101433.59;685832;28;138801;-69
2021/11/17 02:59:17;;;;;;;975.08;908.08;;;;;;;6.36;69.95;101438.97;677019;28;160289;-68
2021/11/17 02:59:54;;;;;;;982.65;915.47;;;;;;;6.34;69.78;101432.03;677532;29;137383;-68
2021/11/17 03:00:40;;;;;;;982.70;915.60;;;;;;;6.34;70.02;101438.25;680483;28;136316;-69
2021/11/17 03:01:34;;;;;;;981.70;914.60;;;;;;;6.37;69.97;101445.19;687738;28;61588;-69
2021/11/17 03:02:20;;;;;;;986.23;918.83;;;;;;;6.35;69.72;101442.63;684867;28;160490;-69
2021/11/17 03:02:52;;;;;;;979.55;912.45;;;;;;;6.34;69.68;101443.63;685370;28;137559;-68
2021/11/17 03:03:29;;;;;;;989.70;922.17;;;;;;;6.35;69.89;101439.09;685792;28;138115;-68
2021/11/17 03:04:06;;;;;;;979.17;912.10;;;;;;;6.34;69.82;101434.72;685747;28;138010;-69
2021/11/17 03:04:42;;;;;;;982.65;915.47;;;;;;;6.32;69.82;101432.19;685955;28;137670;-68
2021/11/17 03:05:28;;;;;;;978.13;911.10;;;;;;;6.32;69.80;101440.22;685497;28;137728;-68
2021/11/17 03:06:14;;;;;;;980.47;913.28;;;;;;;6.34;69.91;101435.56;684919;28;157906;-68
2021/11/17 03:07:01;;;;;;;974.10;907.17;;;;;;;6.29;69.89;101435.97;684411;28;179918;-68
2021/11/17 03:07:45;;;;;;;985.33;918.03;;;;;;;6.34;69.69;101440.09;685553;28;137503;-68
2021/11/17 03:08:23;;;;;;;980.38;913.05;;;;;;;6.34;69.58;101442.78;684743;28;160331;-68
2021/11/17 03:09:00;;;;;;;977.72;910.67;;;;;;;6.34;69.81;101434.72;685822;28;135930;-68
2021/11/17 03:09:44;;;;;;;977.40;910.40;;;;;;;6.36;69.50;101438.13;685318;28;137409;-68
2021/11/17 03:10:40;;;;;;;980.28;913.17;;;;;;;6.34;69.33;101446.28;685879;28;137755;-68
2021/11/17 03:11:18;;;;;;;988.20;920.85;;;;;;;6.32;69.63;101438.38;681352;28;157329;-68
2021/11/17 03:12:00;;;;;;;983.97;916.58;;;;;;;6.29;69.70;101446.69;685251;28;137521;-69
2021/11/17 03:12:37;;;;;;;971.22;904.45;;;;;;;6.32;69.57;101445.59;685429;28;137604;-69
2021/11/17 03:13:21;;;;;;;988.55;921.08;;;;;;;6.31;69.51;101443.88;685700;28;136098;-68
2021/11/17 03:14:15;;;;;;;980.13;913.03;;;;;;;6.30;69.81;101447.53;685466;28;136149;-68
2021/11/17 03:14:59;;;;;;;987.53;920.13;;;;;;;6.31;69.56;101446.56;685486;28;137391;-68
2021/11/17 03:15:48;;;;;;;983.42;916.15;;;;;;;6.29;69.71;101441.31;685292;28;138031;-68
2021/11/17 03:16:26;;;;;;;977.10;910.05;;;;;;;6.34;69.55;101445.47;677096;28;135826;-68
2021/11/17 03:17:05;;;;;;;980.22;913.03;;;;;;;6.31;69.56;101438.50;685644;28;137694;-68
2021/11/17 03:17:48;;;;;;;985.92;918.58;;;;;;;6.29;69.78;101432.44;685477;28;137135;-68
2021/11/17 03:18:31;;;;;;;980.10;912.85;;;;;;;6.30;69.60;101444.84;685285;28;138325;-68
2021/11/17 03:19:09;;;;;;;979.13;911.97;;;;;;;6.30;69.61;101444.84;683086;28;138804;-68
2021/11/17 03:19:43;;;;;;;986.42;918.97;;;;;;;6.29;69.58;101444.00;685418;28;137796;-68
2021/11/17 03:20:18;;;;;;;980.80;913.80;;;;;;;6.30;69.63;101447.53;684661;28;160540;-68
2021/11/17 03:20:52;;;;;;;979.30;912.20;;;;;;;6.30;69.58;101452.91;684811;28;157171;-68
2021/11/17 03:21:26;;;;;;;979.22;912.13;;;;;;;6.28;69.69;101438.78;684934;28;137374;-68
2021/11/17 03:22:06;;;;;;;988.63;921.22;;;;;;;6.24;69.84;101442.72;683769;28;158938;-68
2021/11/17 03:22:43;;;;;;;978.13;911.13;;;;;;;6.25;69.67;101441.72;685169;28;137527;-69
2021/11/17 03:23:17;;;;;;;984.67;917.45;;;;;;;6.24;69.71;101442.72;683943;28;160344;-68
2021/11/17 03:23:54;;;;;;;977.65;910.65;;;;;;;6.20;70.02;101444.78;685209;28;135980;-68
2021/11/17 03:24:33;;;;;;;985.75;918.25;;;;;;;6.21;69.91;101445.66;685477;28;137699;-68
2021/11/17 03:25:08;;;;;;;983.35;916.13;;;;;;;6.22;69.89;101437.50;685438;28;137566;-68
2021/11/17 03:25:49;;;;;;;976.95;909.92;;;;;;;6.22;70.01;101441.97;685119;28;135979;-68
2021/11/17 03:26:25;;;;;;;980.38;913.25;;;;;;;6.23;69.92;101441.00;684482;28;159054;-68
2021/11/17 03:26:59;;;;;;;984.95;917.70;;;;;;;6.25;70.20;101441.72;685634;28;136027;-68
2021/11/17 03:27:41;;;;;;;984.95;917.63;;;;;;;6.22;70.12;101423.22;685728;28;136407;-68
2021/11/17 03:28:17;;;;;;;983.10;915.70;;;;;;;6.23;70.29;101441.00;685731;28;138727;-68
2021/11/17 03:28:59;;;;;;;985.78;918.38;;;;;;;6.21;70.22;101438.47;685566;28;137645;-68
2021/11/17 03:29:42;;;;;;;979.55;912.53;;;;;;;6.21;70.35;101438.47;685712;28;137501;-68
2021/11/17 03:30:19;;;;;;;979.10;912.00;;;;;;;6.22;70.25;101439.31;685809;28;138455;-68
2021/11/17 03:31:02;;;;;;;975.95;909.05;;;;;;;6.21;70.18;101440.31;684644;28;157359;-68
2021/11/17 03:31:53;;;;;;;983.83;916.53;;;;;;;6.19;70.42;101440.44;685050;28;156318;-68
2021/11/17 03:32:28;;;;;;;984.08;916.83;;;;;;;6.19;70.31;101440.44;684656;28;137675;-69
2021/11/17 03:33:03;;;;;;;981.75;914.58;;;;;;;6.20;70.57;101443.97;683315;28;160449;-69
2021/11/17 03:33:51;;;;;;;975.20;908.30;;;;;;;6.19;70.44;101445.78;684110;28;138548;-68
2021/11/17 03:34:45;;;;;;;982.38;915.15;;;;;;;6.19;70.73;101442.25;684539;28;161384;-68
2021/11/17 03:35:29;;;;;;;974.40;907.45;;;;;;;6.20;70.76;101446.63;684013;28;135680;-69
2021/11/17 03:36:15;;;;;;;978.45;911.40;;;;;;;6.21;70.87;101442.97;683198;28;180042;-68
2021/11/17 03:37:02;;;;;;;985.00;917.65;;;;;;;6.22;70.85;101439.31;683892;28;178362;-68
2021/11/17 03:37:37;;;;;;;975.10;908.08;;;;;;;6.23;70.81;101439.16;685216;28;137213;-68
2021/11/17 03:38:12;;;;;;;979.03;911.65;;;;;;;6.22;70.95;101440.16;685374;28;136353;-69
2021/11/17 03:38:51;;;;;;;977.45;910.45;;;;;;;6.25;70.94;101442.59;685772;28;137388;-68
2021/11/17 03:39:57;;;;;;;985.28;917.95;;;;;;;6.26;70.99;101440.75;684958;28;136249;-69
2021/11/17 03:41:04;;;;;;;985.58;918.38;;;;;;;6.26;70.66;101438.91;672859;28;137567;-68
2021/11/17 03:41:53;;;;;;;975.85;908.85;;;;;;;6.29;70.59;101448.53;678921;28;157791;-68
2021/11/17 03:42:44;;;;;;;975.60;908.55;;;;;;;6.26;70.71;101441.59;680390;28;137344;-69
2021/11/17 03:43:35;;;;;;;977.95;910.92;;;;;;;6.26;70.76;101449.63;685884;28;137640;-68
2021/11/17 03:44:25;;;;;;;981.97;914.67;;;;;;;6.20;70.83;101438.59;685393;28;137522;-68
2021/11/17 03:45:15;;;;;;;984.00;916.67;;;;;;;6.20;70.85;101439.44;685342;28;137845;-68
2021/11/17 03:45:54;;;;;;;982.47;915.17;;;;;;;6.21;70.90;101434.94;684609;28;157368;-69
2021/11/17 03:46:35;;;;;;;979.95;912.78;;;;;;;6.19;70.74;101439.56;685050;28;138756;-68
2021/11/17 03:47:14;;;;;;;981.83;914.58;;;;;;;6.20;70.92;101441.28;685463;28;138074;-68
2021/11/17 03:47:53;;;;;;;986.78;919.35;;;;;;;6.17;70.70;101437.00;685606;28;137497;-68
2021/11/17 03:48:23;;;;;;;987.95;920.65;;;;;;;6.17;70.79;101441.53;685762;28;137564;-68
2021/11/17 03:48:56;;;;;;;980.85;913.65;;;;;;;6.16;70.81;101439.81;685462;28;137407;-69
2021/11/17 03:49:31;;;;;;;984.80;917.50;;;;;;;6.16;70.87;101439.81;685683;28;135740;-68
2021/11/17 03:50:07;;;;;;;979.85;912.67;;;;;;;6.15;71.08;101435.47;685269;28;136126;-68
2021/11/17 03:50:42;;;;;;;981.60;914.33;;;;;;;6.18;71.04;101449.44;684736;28;134193;-69
2021/11/17 03:51:32;;;;;;;983.22;915.88;;;;;;;6.20;71.10;101433.22;685269;28;137908;-68
2021/11/17 03:52:15;;;;;;;975.60;908.60;;;;;;;6.21;71.08;101440.31;685352;28;138321;-68
2021/11/17 03:52:50;;;;;;;972.63;905.80;;;;;;;6.19;70.91;101442.25;685802;28;135585;-68
2021/11/17 03:53:27;;;;;;;978.95;911.53;;;;;;;6.20;70.75;101441.28;685472;28;137693;-68
2021/11/17 03:54:04;;;;;;;980.30;913.10;;;;;;;6.17;70.72;101447.75;685642;28;137541;-68
2021/11/17 03:54:48;;;;;;;977.88;910.83;;;;;;;6.16;70.70;101443.38;687565;28;84047;-68
2021/11/17 03:55:31;;;;;;;970.30;903.50;;;;;;;6.13;70.91;101443.63;685685;28;133031;-68
2021/11/17 03:56:13;;;;;;;974.95;907.88;;;;;;;6.12;71.07;101437.41;684709;28;157406;-68
2021/11/17 03:56:50;;;;;;;979.38;912.33;;;;;;;6.12;71.13;101442.75;683281;28;157463;-69
2021/11/17 03:57:27;;;;;;;981.60;914.38;;;;;;;6.13;71.17;101440.94;685489;28;137734;-68
2021/11/17 03:58:01;;;;;;;977.00;909.70;;;;;;;6.13;71.03;101439.13;685064;28;136093;-68
2021/11/17 03:58:38;;;;;;;988.05;920.67;;;;;;;6.11;71.23;101435.72;685411;28;136119;-68
2021/11/17 03:59:15;;;;;;;986.47;919.17;;;;;;;6.14;71.01;101442.63;685537;28;137228;-68
2021/11/17 03:59:58;;;;;;;991.38;923.80;;;;;;;6.15;70.90;101432.78;685601;28;137078;-68
2021/11/17 04:00:51;;;;;;;992.38;924.72;;;;;;;6.16;71.14;101447.88;684952;28;138594;-69
2021/11/17 04:01:37;;;;;;;990.75;923.25;;;;;;;6.16;70.86;101440.69;680149;28;137670;-68
2021/11/17 04:02:21;;;;;;;977.97;910.85;;;;;;;6.17;70.88;101441.53;685437;28;136385;-68
2021/11/17 04:02:56;;;;;;;975.22;908.25;;;;;;;6.15;70.77;101438.16;684787;28;160643;-69
2021/11/17 04:03:32;;;;;;;978.28;911.20;;;;;;;6.15;70.86;101446.19;685587;28;136123;-69
2021/11/17 04:04:19;;;;;;;969.05;902.35;;;;;;;6.16;70.86;101446.06;684713;28;158672;-68
2021/11/17 04:05:05;;;;;;;987.72;920.22;;;;;;;6.14;70.89;101439.94;684893;28;161376;-68
2021/11/17 04:05:45;;;;;;;979.88;912.67;;;;;;;6.14;70.81;101448.00;685691;28;117512;-68
2021/11/17 04:06:21;;;;;;;985.75;918.30;;;;;;;6.12;70.71;101442.75;685331;28;138052;-69
2021/11/17 04:07:10;;;;;;;973.90;907.05;;;;;;;6.08;70.97;101441.34;685623;28;137858;-68
2021/11/17 04:07:52;;;;;;;990.10;922.55;;;;;;;6.07;71.00;101434.28;685554;28;137571;-69
2021/11/17 04:08:30;;;;;;;981.85;914.65;;;;;;;6.07;71.11;101430.75;685560;28;132213;-69
2021/11/17 04:09:04;;;;;;;985.30;917.95;;;;;;;6.04;71.21;101434.53;685515;28;137410;-69
2021/11/17 04:09:49;;;;;;;984.97;917.70;;;;;;;6.04;71.45;101433.69;685389;28;135972;-68
2021/11/17 04:10:26;;;;;;;976.45;909.38;;;;;;;6.03;71.44;101438.19;684130;28;160619;-68
2021/11/17 04:11:03;;;;;;;986.35;918.85;;;;;;;6.04;71.42;101437.22;685202;28;138606;-68
2021/11/17 04:11:38;;;;;;;984.00;916.70;;;;;;;6.04;71.54;101431.84;684828;28;157277;-69
2021/11/17 04:12:15;;;;;;;982.78;915.47;;;;;;;6.05;71.37;101433.56;685438;28;136378;-68
2021/11/17 04:12:48;;;;;;;987.92;920.42;;;;;;;6.02;71.42;101425.78;685499;28;137513;-69
2021/11/17 04:13:20;;;;;;;983.03;915.72;;;;;;;6.03;71.58;101435.50;685743;28;136985;-69
2021/11/17 04:13:50;;;;;;;986.78;919.30;;;;;;;6.02;71.65;101432.94;685463;28;137574;-69
2021/11/17 04:14:22;;;;;;;986.30;918.90;;;;;;;5.99;71.43;101426.03;684501;28;160750;-69
2021/11/17 04:14:58;;;;;;;984.28;916.95;;;;;;;5.98;71.69;101428.84;685332;28;138442;-69
2021/11/17 04:15:40;;;;;;;986.22;918.83;;;;;;;5.95;71.65;101427.22;684982;28;137051;-69
2021/11/17 04:16:14;;;;;;;986.47;919.03;;;;;;;5.92;71.83;101424.81;684130;28;136065;-69
2021/11/17 04:16:54;;;;;;;983.80;916.45;;;;;;;5.92;71.71;101430.16;685325;28;137709;-69
2021/11/17 04:17:27;;;;;;;976.38;909.38;;;;;;;5.90;71.82;101432.97;685534;28;137423;-69
2021/11/17 04:17:57;;;;;;;991.80;924.33;;;;;;;5.94;71.88;101434.44;685118;28;137813;-69
2021/11/17 04:18:33;;;;;;;989.78;922.38;;;;;;;5.92;71.92;101432.84;684597;28;133270;-68
2021/11/17 04:19:06;;;;;;;986.63;919.17;;;;;;;5.93;72.11;101429.19;684326;28;138197;-69
2021/11/17 04:19:42;;;;;;;991.72;923.88;;;;;;;5.95;71.89;101433.44;683371;28;137730;-69
2021/11/17 04:20:17;;;;;;;992.30;924.70;;;;;;;5.97;72.13;101435.19;684416;28;137259;-69
2021/11/17 04:20:52;;;;;;;987.15;919.65;;;;;;;5.99;71.86;101434.06;684418;28;157729;-69
2021/11/17 04:21:30;;;;;;;982.38;915.05;;;;;;;6.00;71.88;101434.91;684714;28;137214;-69
2021/11/17 04:22:09;;;;;;;989.67;922.15;;;;;;;5.99;72.01;101434.06;685595;28;137255;-69
2021/11/17 04:22:47;;;;;;;986.60;919.17;;;;;;;6.01;71.92;101437.47;685560;28;138285;-68
2021/11/17 04:23:21;;;;;;;982.15;914.78;;;;;;;6.01;71.99;101436.63;685497;28;137872;-69
2021/11/17 04:24:11;;;;;;;978.65;911.55;;;;;;;6.01;71.94;101428.59;685648;28;137408;-69
2021/11/17 04:24:51;;;;;;;980.47;913.05;;;;;;;6.01;72.03;101433.94;684569;28;158939;-69
2021/11/17 04:25:31;;;;;;;985.05;917.75;;;;;;;6.01;71.82;101437.47;684415;28;161272;-69
2021/11/17 04:26:17;;;;;;;979.95;912.65;;;;;;;6.04;71.81;101431.00;685645;28;137375;-69
2021/11/17 04:26:53;;;;;;;981.10;913.90;;;;;;;6.05;72.03;101438.91;682264;28;157127;-69
2021/11/17 04:27:29;;;;;;;979.78;912.63;;;;;;;6.03;71.63;101426.63;682951;28;135986;-68
2021/11/17 04:28:06;;;;;;;990.90;923.20;;;;;;;6.03;71.58;101432.81;680846;28;137251;-69
2021/11/17 04:28:41;;;;;;;990.40;922.90;;;;;;;6.02;71.88;101436.50;682431;28;137747;-69
2021/11/17 04:29:26;;;;;;;982.47;915.22;;;;;;;6.01;71.77;101432.09;681883;28;137610;-69
2021/11/17 04:30:11;;;;;;;987.58;920.05;;;;;;;6.05;72.01;101427.31;681653;28;160613;-69
2021/11/17 04:31:14;;;;;;;985.88;918.40;;;;;;;6.06;71.94;101435.25;681180;28;180271;-69
2021/11/17 04:31:58;;;;;;;989.08;921.67;;;;;;;6.07;71.63;101436.09;681962;28;157180;-70
2021/11/17 04:32:38;;;;;;;990.03;922.50;;;;;;;6.10;71.81;101435.84;683068;28;136331;-69
2021/11/17 04:33:20;;;;;;;994.03;926.30;;;;;;;6.10;71.64;101434.00;682771;28;136003;-70
2021/11/17 04:34:18;;;;;;;995.00;927.20;;;;;;;6.10;71.45;101434.00;681830;28;161241;-69
2021/11/17 04:35:01;;;;;;;983.08;915.67;;;;;;;6.10;71.47;101431.31;682800;28;135971;-70
2021/11/17 04:35:54;;;;;;;987.28;919.75;;;;;;;6.12;71.55;101433.88;682386;28;137393;-68
2021/11/17 04:37:01;;;;;;;997.50;929.63;;;;;;;6.11;71.46;101434.84;682431;28;137690;-69
2021/11/17 04:37:55;;;;;;;984.83;917.50;;;;;;;6.07;71.37;101436.94;677879;28;138136;-69
2021/11/17 04:38:45;;;;;;;989.22;921.88;;;;;;;6.04;71.51;101437.22;684272;28;136247;-69
2021/11/17 04:39:30;;;;;;;984.60;917.17;;;;;;;6.03;71.62;101440.88;683516;28;135896;-69
2021/11/17 04:40:14;;;;;;;984.10;916.78;;;;;;;6.02;71.72;101435.63;682735;28;135999;-68
2021/11/17 04:41:20;;;;;;;977.20;910.10;;;;;;;5.98;71.67;101445.78;678955;28;156403;-69
2021/11/17 04:42:06;;;;;;;979.83;912.63;;;;;;;5.98;71.87;101436.88;683037;28;135086;-69
2021/11/17 04:43:00;;;;;;;984.00;916.75;;;;;;;6.01;71.72;101448.19;682877;28;136172;-68
2021/11/17 04:43:38;;;;;;;984.58;917.20;;;;;;;6.01;71.66;101437.47;682052;28;161347;-68
2021/11/17 04:44:16;;;;;;;994.05;926.35;;;;;;;6.01;71.62;101442.00;681821;28;137597;-69
2021/11/17 04:44:52;;;;;;;998.17;930.28;;;;;;;5.97;71.70;101436.03;682895;28;137367;-69
2021/11/17 04:45:25;;;;;;;991.42;923.72;;;;;;;5.95;71.81;101437.97;682375;28;135984;-69
2021/11/17 04:46:00;;;;;;;992.53;924.70;;;;;;;5.98;72.10;101443.09;683013;28;136003;-68
2021/11/17 04:46:36;;;;;;;991.55;923.85;;;;;;;5.98;71.93;101440.41;681941;28;157108;-69
2021/11/17 04:47:20;;;;;;;987.85;920.30;;;;;;;5.98;72.06;101440.41;682752;28;136169;-69
2021/11/17 04:47:57;;;;;;;980.67;913.42;;;;;;;5.98;71.89;101439.56;683206;28;106993;-69
2021/11/17 04:48:38;;;;;;;981.88;914.63;;;;;;;5.98;71.86;101436.88;682779;28;135738;-68
2021/11/17 04:49:13;;;;;;;985.90;918.45;;;;;;;5.96;72.12;101434.31;682507;28;136139;-69
2021/11/17 04:49:58;;;;;;;985.63;918.22;;;;;;;5.94;72.16;101441.59;682836;28;137698;-69
2021/11/17 04:50:46;;;;;;;983.35;916.03;;;;;;;5.92;71.87;101439.09;682529;28;136055;-69
2021/11/17 04:51:27;;;;;;;995.95;928.15;;;;;;;5.90;72.02;101432.13;682576;28;137757;-69
2021/11/17 04:52:00;;;;;;;979.85;912.65;;;;;;;5.89;71.94;101430.44;682725;28;137517;-69
2021/11/17 04:52:50;;;;;;;993.70;925.97;;;;;;;5.90;72.04;101427.63;682738;28;138521;-69
2021/11/17 04:53:27;;;;;;;985.63;918.28;;;;;;;5.90;71.78;101426.78;683007;28;135680;-69
2021/11/17 04:54:24;;;;;;;982.78;915.42;;;;;;;5.91;71.92;101432.00;682727;28;137397;-68
2021/11/17 04:54:58;;;;;;;976.47;909.38;;;;;;;5.92;71.57;101423.00;682591;28;137678;-68
2021/11/17 04:55:55;;;;;;;981.97;914.73;;;;;;;5.89;71.66;101425.94;681620;28;158921;-69
2021/11/17 04:56:43;;;;;;;982.53;915.22;;;;;;;5.88;71.56;101426.91;682398;28;138900;-68
2021/11/17 04:57:25;;;;;;;982.70;915.40;;;;;;;5.86;71.54;101425.31;682229;28;160691;-69
2021/11/17 04:58:07;;;;;;;983.97;916.58;;;;;;;5.85;71.81;101424.47;682195;28;137361;-69
2021/11/17 04:58:49;;;;;;;990.85;923.33;;;;;;;5.85;71.67;101426.31;682425;28;137199;-69
2021/11/17 04:59:24;;;;;;;988.47;921.00;;;;;;;5.85;71.86;101426.31;682641;28;137406;-68
2021/11/17 05:00:28;;;;;;;993.97;926.13;;;;;;;5.83;71.54;101420.22;682357;28;136024;-68
2021/11/17 05:01:15;;;;;;;986.45;919.03;;;;;;;5.82;71.71;101418.53;674680;28;158072;-68
2021/11/17 05:01:58;;;;;;;998.97;931.05;;;;;;;5.83;71.61;101425.59;681705;28;156532;-69
2021/11/17 05:02:35;;;;;;;992.47;924.80;;;;;;;5.84;71.53;101427.28;682857;28;137638;-68
2021/11/17 05:03:08;;;;;;;997.00;929.13;;;;;;;5.83;71.81;101428.25;682097;28;159966;-68
2021/11/17 05:03:43;;;;;;;989.90;922.40;;;;;;;5.84;71.76;101435.34;682566;28;137676;-69
2021/11/17 05:04:16;;;;;;;998.33;930.47;;;;;;;5.84;71.68;101430.81;682747;28;137828;-69
2021/11/17 05:04:51;;;;;;;993.75;926.03;;;;;;;5.83;71.48;101428.25;682850;28;138233;-68
2021/11/17 05:05:31;;;;;;;990.85;923.33;;;;;;;5.83;71.69;101436.31;682504;28;137503;-68
2021/11/17 05:06:13;;;;;;;983.05;915.75;;;;;;;5.82;71.79;101429.25;684534;28;160449;-68
2021/11/17 05:06:57;;;;;;;997.40;929.63;;;;;;;5.81;71.62;101427.56;684775;28;156557;-69
2021/11/17 05:07:29;;;;;;;984.67;917.45;;;;;;;5.83;71.82;101433.63;685381;28;137694;-69
2021/11/17 05:07:57;;;;;;;979.83;912.45;;;;;;;5.83;71.90;101428.25;684978;28;137545;-69
2021/11/17 05:08:27;;;;;;;987.80;920.28;;;;;;;5.83;71.66;101425.59;685024;28;137693;-69
2021/11/17 05:08:59;;;;;;;984.22;916.83;;;;;;;5.85;71.60;101432.53;685301;28;137612;-68
2021/11/17 05:09:30;;;;;;;986.33;918.88;;;;;;;5.83;71.75;101421.09;685545;28;137272;-68
2021/11/17 05:10:02;;;;;;;985.35;917.90;;;;;;;5.85;71.50;101431.69;685177;28;136030;-68
2021/11/17 05:10:39;;;;;;;1002.47;934.45;;;;;;;5.86;71.50;101425.31;685144;28;137688;-68
2021/11/17 05:11:11;;;;;;;984.58;917.20;;;;;;;5.85;71.61;101423.66;684994;28;135996;-68
2021/11/17 05:11:43;;;;;;;988.45;920.95;;;;;;;5.87;71.55;101429.72;685545;28;137579;-68
2021/11/17 05:12:16;;;;;;;987.25;919.65;;;;;;;5.87;71.55;101424.34;685270;28;138138;-68
2021/11/17 05:12:49;;;;;;;982.53;915.03;;;;;;;5.87;71.45;101427.03;685527;28;137449;-68
2021/11/17 05:13:23;;;;;;;982.88;915.55;;;;;;;5.87;71.24;101427.03;685584;28;136021;-69
2021/11/17 05:13:52;;;;;;;1001.17;933.17;;;;;;;5.89;71.38;101417.03;685587;28;136233;-69
2021/11/17 05:14:20;;;;;;;987.78;920.33;;;;;;;5.88;71.31;101424.22;685133;28;136173;-69
2021/11/17 05:14:51;;;;;;;989.65;922.08;;;;;;;5.88;71.40;101418.88;685527;28;137832;-69
2021/11/17 05:15:23;;;;;;;984.08;916.65;;;;;;;5.92;71.25;101435.53;684148;28;159096;-69
2021/11/17 05:15:56;;;;;;;994.53;926.63;;;;;;;5.92;71.26;101422.13;686025;28;119895;-68
2021/11/17 05:16:30;;;;;;;987.90;920.35;;;;;;;5.92;70.98;101419.44;684728;28;137687;-69
2021/11/17 05:17:04;;;;;;;991.08;923.55;;;;;;;5.93;70.85;101429.19;685045;28;138560;-69
2021/11/17 05:17:36;;;;;;;988.78;921.28;;;;;;;5.92;70.98;101430.16;685481;28;137675;-69
2021/11/17 05:18:06;;;;;;;1000.15;932.05;;;;;;;5.92;70.71;101422.13;685420;28;137646;-69
2021/11/17 05:18:41;;;;;;;987.13;919.63;;;;;;;5.89;70.72;101423.25;684934;28;134048;-69
2021/11/17 05:19:10;;;;;;;989.13;921.55;;;;;;;5.89;70.63;101425.94;685441;28;137583;-68
2021/11/17 05:19:39;;;;;;;997.63;929.83;;;;;;;5.91;70.69;101428.50;684513;28;160903;-68
2021/11/17 05:20:13;;;;;;;992.58;924.85;;;;;;;5.91;70.70;101429.34;685387;28;137741;-68
2021/11/17 05:20:46;;;;;;;986.95;919.47;;;;;;;5.90;70.52;101422.25;684365;28;156301;-68
2021/11/17 05:21:19;;;;;;;988.63;921.08;;;;;;;5.90;70.60;101424.94;684972;28;136128;-68
2021/11/17 05:21:53;;;;;;;978.60;911.38;;;;;;;5.89;70.54;101425.06;684747;28;161642;-69
2021/11/17 05:22:25;;;;;;;978.45;911.28;;;;;;;5.92;70.70;101427.50;685626;28;136003;-69
2021/11/17 05:23:01;;;;;;;986.00;918.55;;;;;;;5.90;70.58;101422.25;684611;28;160550;-68
2021/11/17 05:23:35;;;;;;;986.58;919.10;;;;;;;5.91;70.52;101431.16;685401;28;137424;-69
2021/11/17 05:24:18;;;;;;;986.92;919.42;;;;;;;5.92;70.71;101431.03;684886;28;160695;-69
2021/11/17 05:24:55;;;;;;;991.30;923.60;;;;;;;5.94;70.30;101431.75;685169;28;137400;-69
2021/11/17 05:25:31;;;;;;;989.45;921.88;;;;;;;5.91;70.37;101433.84;684981;28;137673;-69
2021/11/17 05:26:04;;;;;;;983.25;916.05;;;;;;;5.91;70.24;101431.16;685364;28;137562;-69